Kezdőlap
METAR-TAF:

METAR-TAF

Repülőterek :

Bric della Croce

Torino, Olaszország

földrajzi szélesség: 45-02N, földrajzi hosszúság: 007-44E, magasság: 709 m

Jelenlegi meteorológiai megfigyelések

A jelentés 35 perccel ezelõtt készült, 19:55 UTC
Szélcsend
Hőmérséklet 8°C
Páratartalom 19%
Légköri nyomás 1019 hPa
Látótávolság 10 km, vagy több
felhőtlen 1500 m magasságban, és nincs gomolyfelhõ

METAR: LIMK 191955Z 00000KT CAVOK 08/M14 Q1019 RMK SKC VAL NIL VIS MIN 9999

Idő: 21:30 (20:30 UTC)


TAF: hiányzik

Meteorológiai megfigyelések és előrejelzések több, mint 4000 repülőtéren (METAR és TAF jelentéseket).

A térképen piros és sárga pontok jelzik az elérhető meteorológiai állomásokat.

Mozgassa az egeret a pont fölött, hogy megjelenjen az állomás neve.

Azután kattintson az időjárási megfigyelések és előrejelzések megtekintéséhez.

A térkép megváltoztatása: kattintson a fekete keresztel jelölt zöld gombra ráközelítéshez, a vonallal jelölt zöld gombra távolításhoz, vagy a zöld nyilakra a szomszédos térképek eléréséhez.


METAR-TAF: